| time (UTC) | temp C | wind direction | speed KPH | gust KPH | rain 1hr cm | rain 24hr cm | rain mn cm | humidity % | barometer mb |
| 20260503211003 | 17 | 218 | 16.1 | 33.8 | 0.00 | 0.00 | 0.00 | 59 | 1012.5 |
| 20260503210503 | 18 | 218 | 16.1 | 27.4 | 0.00 | 0.00 | 0.00 | 60 | 1012.5 |
| 20260503210003 | 18 | 221 | 14.5 | 27.4 | 0.00 | 0.00 | 0.00 | 59 | 1012.5 |
| 20260503205503 | 18 | 212 | 14.5 | 24.1 | 0.00 | 0.00 | 0.00 | 61 | 1012.4 |
| 20260503205003 | 17 | 221 | 14.5 | 24.1 | 0.00 | 0.00 | 0.00 | 61 | 1012.3 |
| 20260503204503 | 17 | 219 | 16.1 | 24.1 | 0.00 | 0.00 | 0.00 | 61 | 1012.4 |
| 20260503204024 | 17 | 209 | 16.1 | 25.7 | 0.00 | 0.00 | 0.00 | 62 | 1012.4 |
| 20260503203503 | 17 | 220 | 12.9 | 29.0 | 0.00 | 0.00 | 0.00 | 61 | 1012.5 |
| 20260503203003 | 17 | 228 | 12.9 | 29.0 | 0.00 | 0.00 | 0.00 | 62 | 1012.6 |
| 20260503202503 | 17 | 224 | 16.1 | 29.0 | 0.00 | 0.00 | 0.00 | 63 | 1012.6 |
| 20260503202024 | 17 | 227 | 16.1 | 29.0 | 0.00 | 0.00 | 0.00 | 62 | 1012.5 |
| 20260503201503 | 17 | 239 | 14.5 | 29.0 | 0.00 | 0.00 | 0.00 | 63 | 1012.7 |
| 20260503201003 | 17 | 250 | 16.1 | 29.0 | 0.00 | 0.00 | 0.00 | 62 | 1012.7 |
| 20260503200503 | 17 | 250 | 16.1 | 29.0 | 0.00 | 0.00 | 0.00 | 62 | 1012.5 |
| 20260503200003 | 17 | 249 | 14.5 | 29.0 | 0.00 | 0.00 | 0.00 | 60 | 1012.6 |
| 20260503195503 | 17 | 267 | 12.9 | 24.1 | 0.00 | 0.00 | 0.00 | 61 | 1012.7 |
| 20260503195003 | 17 | 245 | 12.9 | 22.5 | 0.00 | 0.00 | 0.00 | 61 | 1012.7 |
| 20260503194525 | 17 | 235 | 14.5 | 22.5 | 0.00 | 0.00 | 0.00 | 60 | 1012.7 |
| 20260503194003 | 17 | 236 | 14.5 | 25.7 | 0.00 | 0.00 | 0.00 | 59 | 1012.7 |
| 20260503193503 | 17 | 236 | 14.5 | 25.7 | 0.00 | 0.00 | 0.00 | 61 | 1012.8 |
| 20260503193003 | 17 | 244 | 16.1 | 24.1 | 0.00 | 0.00 | 0.00 | 61 | 1012.8 |
| 20260503192504 | 17 | 243 | 16.1 | 27.4 | 0.00 | 0.00 | 0.00 | 62 | 1012.7 |
| 20260503192003 | 17 | 235 | 12.9 | 27.4 | 0.00 | 0.00 | 0.00 | 62 | 1012.6 |
| 20260503191503 | 17 | 239 | 11.3 | 19.3 | 0.00 | 0.00 | 0.00 | 62 | 1012.8 |
| 20260503191003 | 17 | 251 | 12.9 | 20.9 | 0.00 | 0.00 | 0.00 | 63 | 1012.8 |
| 20260503190503 | 17 | 250 | 12.9 | 20.9 | 0.00 | 0.00 | 0.00 | 62 | 1012.7 |
| 20260503190003 | 17 | 244 | 12.9 | 25.7 | 0.00 | 0.00 | 0.00 | 63 | 1012.7 |
| 20260503185503 | 17 | 247 | 12.9 | 25.7 | 0.00 | 0.00 | 0.00 | 63 | 1012.8 |
| 20260503185003 | 17 | 240 | 12.9 | 22.5 | 0.00 | 0.00 | 0.00 | 63 | 1012.8 |
| 20260503184503 | 17 | 218 | 12.9 | 24.1 | 0.00 | 0.00 | 0.00 | 65 | 1012.9 |
| 20260503184003 | 17 | 223 | 11.3 | 24.1 | 0.00 | 0.00 | 0.00 | 65 | 1012.8 |
| 20260503183503 | 16 | 224 | 11.3 | 22.5 | 0.00 | 0.00 | 0.00 | 64 | 1012.8 |
| 20260503183003 | 16 | 231 | 12.9 | 24.1 | 0.00 | 0.00 | 0.00 | 66 | 1012.8 |
| 20260503182503 | 16 | 235 | 12.9 | 24.1 | 0.00 | 0.00 | 0.00 | 67 | 1012.8 |
| 20260503182024 | 17 | 221 | 11.3 | 22.5 | 0.00 | 0.00 | 0.00 | 67 | 1012.7 |
| 20260503181504 | 16 | 232 | 9.7 | 19.3 | 0.00 | 0.00 | 0.00 | 68 | 1012.7 |
| 20260503181004 | 16 | 250 | 9.7 | 17.7 | 0.00 | 0.00 | 0.00 | 68 | 1012.7 |
| 20260503180503 | 16 | 255 | 8.0 | 14.5 | 0.00 | 0.00 | 0.00 | 71 | 1012.7 |
| 20260503180004 | 16 | 248 | 9.7 | 17.7 | 0.00 | 0.00 | 0.00 | 71 | 1012.7 |
| 20260503175503 | 15 | 236 | 12.9 | 22.5 | 0.00 | 0.00 | 0.00 | 70 | 1012.7 |
| 20260503175003 | 15 | 232 | 11.3 | 22.5 | 0.00 | 0.00 | 0.00 | 71 | 1012.8 |
| 20260503174503 | 15 | 245 | 9.7 | 19.3 | 0.00 | 0.00 | 0.00 | 74 | 1012.7 |
| 20260503174003 | 15 | 253 | 11.3 | 19.3 | 0.00 | 0.00 | 0.00 | 75 | 1012.7 |
| 20260503173503 | 15 | 253 | 11.3 | 19.3 | 0.00 | 0.00 | 0.00 | 75 | 1012.7 |
| 20260503173003 | 14 | 250 | 11.3 | 19.3 | 0.00 | 0.00 | 0.00 | 77 | 1012.6 |
| 20260503172504 | 14 | 242 | 11.3 | 19.3 | 0.00 | 0.00 | 0.00 | 77 | 1012.7 |
| 20260503172024 | 14 | 241 | 9.7 | 17.7 | 0.00 | 0.00 | 0.00 | 79 | 1012.7 |
| 20260503171524 | 13 | 250 | 8.0 | 16.1 | 0.00 | 0.00 | 0.00 | 80 | 1012.7 |
| 20260503171003 | 13 | 232 | 8.0 | 14.5 | 0.00 | 0.00 | 0.00 | 81 | 1012.7 |
| 20260503170503 | 13 | 223 | 8.0 | 17.7 | 0.00 | 0.00 | 0.00 | 82 | 1012.8 |
| 20260503151003 | 12 | 251 | 1.6 | 8.0 | 0.00 | 0.00 | 0.00 | 86 | 1012.3 |
| 20260503150503 | 12 | 237 | 1.6 | 8.0 | 0.00 | 0.00 | 0.00 | 86 | 1012.3 |
| 20260503131003 | 12 | 251 | 1.6 | 6.4 | 0.00 | 0.00 | 0.00 | 81 | 1011.0 |
| 20260503130503 | 12 | 249 | 1.6 | 6.4 | 0.00 | 0.00 | 0.00 | 81 | 1010.8 |
| 20260503110503 | 12 | 296 | 0.0 | 3.2 | 0.00 | 0.00 | 0.00 | 82 | 1011.0 |
| 20260503090503 | 12 | 291 | 4.8 | 9.7 | 0.00 | 0.00 | 0.00 | 81 | 1011.2 |
| 20260503081503 | 12 | 290 | 4.8 | 9.7 | 0.00 | 0.00 | 0.00 | 81 | 1011.6 |
| 20260503081003 | 12 | 285 | 3.2 | 9.7 | 0.00 | 0.00 | 0.00 | 81 | 1011.8 |
| 20260503080503 | 12 | 280 | 3.2 | 8.0 | 0.00 | 0.00 | 0.00 | 81 | 1011.9 |
| 20260503072524 | 12 | 0 | 0.0 | 0.0 | 0.00 | 0.00 | 0.00 | 81 | 1011.8 |
| 20260503072003 | 12 | 0 | 0.0 | 0.0 | 0.00 | 0.00 | 0.00 | 81 | 1011.8 |
| 20260503071524 | 12 | 0 | 0.0 | 0.0 | 0.00 | 0.00 | 0.00 | 81 | 1011.8 |
| 20260503071003 | 12 | 240 | 0.0 | 3.2 | 0.00 | 0.00 | 0.00 | 81 | 1011.9 |
| 20260503070503 | 12 | 237 | 1.6 | 4.8 | 0.00 | 0.00 | 0.00 | 81 | 1011.9 |
| 20260503055003 | 12 | 296 | 4.8 | 12.9 | 0.00 | 0.00 | 0.00 | 81 | 1012.2 |
| 20260503054503 | 12 | 293 | 4.8 | 9.7 | 0.00 | 0.00 | 0.00 | 81 | 1012.1 |
| 20260503054003 | 12 | 289 | 4.8 | 11.3 | 0.00 | 0.00 | 0.00 | 81 | 1012.1 |
| 20260503053503 | 12 | 296 | 4.8 | 12.9 | 0.00 | 0.00 | 0.00 | 81 | 1012.2 |
| 20260503053024 | 12 | 304 | 4.8 | 12.9 | 0.00 | 0.00 | 0.00 | 80 | 1012.3 |
| 20260503052503 | 12 | 297 | 6.4 | 12.9 | 0.00 | 0.00 | 0.00 | 80 | 1012.4 |
| 20260503052003 | 12 | 303 | 6.4 | 12.9 | 0.00 | 0.00 | 0.00 | 80 | 1012.3 |
| 20260503051524 | 12 | 302 | 6.4 | 11.3 | 0.00 | 0.00 | 0.00 | 80 | 1012.3 |
| 20260503051003 | 12 | 296 | 6.4 | 14.5 | 0.00 | 0.00 | 0.00 | 80 | 1012.3 |
| 20260503050503 | 12 | 286 | 8.0 | 20.9 | 0.00 | 0.00 | 0.00 | 80 | 1012.3 |
| 20260503050003 | 12 | 287 | 9.7 | 20.9 | 0.00 | 0.00 | 0.00 | 80 | 1012.2 |
| 20260503045503 | 12 | 294 | 9.7 | 14.5 | 0.00 | 0.00 | 0.00 | 80 | 1012.3 |
| 20260503045003 | 12 | 293 | 6.4 | 14.5 | 0.00 | 0.00 | 0.00 | 80 | 1012.2 |
| 20260503044503 | 12 | 286 | 8.0 | 17.7 | 0.00 | 0.00 | 0.00 | 80 | 1012.3 |
| 20260503044003 | 12 | 282 | 8.0 | 17.7 | 0.00 | 0.00 | 0.00 | 80 | 1012.3 |
| 20260503043503 | 12 | 279 | 4.8 | 12.9 | 0.00 | 0.00 | 0.00 | 80 | 1012.2 |
| 20260503043024 | 12 | 283 | 4.8 | 11.3 | 0.00 | 0.00 | 0.00 | 80 | 1012.3 |
| 20260503042503 | 12 | 286 | 4.8 | 11.3 | 0.00 | 0.00 | 0.00 | 80 | 1012.2 |
| 20260503042003 | 12 | 285 | 4.8 | 11.3 | 0.00 | 0.00 | 0.00 | 80 | 1012.1 |
| 20260503041524 | 12 | 286 | 4.8 | 14.5 | 0.00 | 0.00 | 0.00 | 80 | 1012.2 |
| 20260503041003 | 13 | 285 | 6.4 | 14.5 | 0.00 | 0.00 | 0.00 | 80 | 1012.1 |
| 20260503040503 | 13 | 281 | 6.4 | 14.5 | 0.00 | 0.00 | 0.00 | 80 | 1012.0 |
| 20260503040003 | 13 | 287 | 6.4 | 14.5 | 0.00 | 0.00 | 0.00 | 80 | 1012.1 |
| 20260503035503 | 13 | 285 | 8.0 | 17.7 | 0.00 | 0.00 | 0.00 | 80 | 1012.0 |
| 20260503035024 | 13 | 275 | 6.4 | 17.7 | 0.00 | 0.00 | 0.00 | 80 | 1012.1 |
| 20260503034503 | 13 | 273 | 6.4 | 11.3 | 0.00 | 0.00 | 0.00 | 80 | 1012.1 |
| 20260503034003 | 13 | 276 | 6.4 | 11.3 | 0.00 | 0.00 | 0.00 | 79 | 1012.0 |
| 20260503033503 | 13 | 280 | 6.4 | 16.1 | 0.00 | 0.00 | 0.00 | 79 | 1012.0 |
| 20260503033003 | 13 | 278 | 6.4 | 16.1 | 0.00 | 0.00 | 0.00 | 79 | 1012.0 |
| 20260503032524 | 13 | 269 | 6.4 | 12.9 | 0.00 | 0.00 | 0.00 | 79 | 1011.8 |
| 20260503032024 | 13 | 275 | 6.4 | 14.5 | 0.00 | 0.00 | 0.00 | 79 | 1011.8 |
| 20260503031503 | 13 | 275 | 6.4 | 14.5 | 0.00 | 0.00 | 0.00 | 79 | 1011.6 |
| 20260503031003 | 13 | 279 | 8.0 | 14.5 | 0.00 | 0.00 | 0.00 | 79 | 1011.6 |
| 20260503030503 | 13 | 278 | 8.0 | 19.3 | 0.00 | 0.00 | 0.00 | 78 | 1011.5 |
| 20260503030003 | 13 | 271 | 9.7 | 19.3 | 0.00 | 0.00 | 0.00 | 78 | 1011.4 |
| 20260503025503 | 13 | 274 | 9.7 | 20.9 | 0.00 | 0.00 | 0.00 | 78 | 1011.3 |
| 20260503025024 | 13 | 281 | 9.7 | 20.9 | 0.00 | 0.00 | 0.00 | 78 | 1011.3 |
| 20260503024503 | 13 | 275 | 11.3 | 20.9 | 0.00 | 0.00 | 0.00 | 77 | 1011.2 |
| 20260503024003 | 13 | 270 | 9.7 | 20.9 | 0.00 | 0.00 | 0.00 | 77 | 1011.2 |
| 20260503023503 | 13 | 268 | 9.7 | 19.3 | 0.00 | 0.00 | 0.00 | 77 | 1011.2 |
| 20260503023003 | 13 | 268 | 9.7 | 19.3 | 0.00 | 0.00 | 0.00 | 77 | 1011.1 |
| 20260503022503 | 13 | 265 | 9.7 | 22.5 | 0.00 | 0.00 | 0.00 | 76 | 1011.1 |
| 20260503022024 | 13 | 265 | 11.3 | 22.5 | 0.00 | 0.00 | 0.00 | 76 | 1011.0 |
| 20260503021503 | 13 | 268 | 11.3 | 22.5 | 0.00 | 0.00 | 0.00 | 76 | 1011.2 |
| 20260503021003 | 13 | 268 | 11.3 | 22.5 | 0.00 | 0.00 | 0.00 | 76 | 1011.2 |
| 20260503020503 | 13 | 268 | 11.3 | 19.3 | 0.00 | 0.00 | 0.00 | 76 | 1011.3 |
| 20260503020003 | 13 | 268 | 11.3 | 20.9 | 0.00 | 0.00 | 0.00 | 76 | 1011.3 |
| 20260503015503 | 13 | 271 | 9.7 | 25.7 | 0.00 | 0.00 | 0.00 | 75 | 1011.4 |
| 20260503015003 | 13 | 266 | 11.3 | 25.7 | 0.00 | 0.00 | 0.00 | 75 | 1011.4 |
| 20260503014503 | 13 | 264 | 14.5 | 25.7 | 0.00 | 0.00 | 0.00 | 75 | 1011.4 |
| 20260503014003 | 13 | 263 | 16.1 | 25.7 | 0.00 | 0.00 | 0.00 | 74 | 1011.4 |
| 20260503013503 | 14 | 266 | 14.5 | 25.7 | 0.00 | 0.00 | 0.00 | 74 | 1011.4 |
| 20260503013003 | 14 | 268 | 12.9 | 27.4 | 0.00 | 0.00 | 0.00 | 74 | 1011.4 |
| 20260503012503 | 14 | 278 | 12.9 | 27.4 | 0.00 | 0.00 | 0.00 | 73 | 1011.4 |
| 20260503012003 | 14 | 294 | 11.3 | 22.5 | 0.00 | 0.00 | 0.00 | 74 | 1011.4 |
| 20260503011503 | 14 | 289 | 12.9 | 20.9 | 0.00 | 0.00 | 0.00 | 73 | 1011.6 |
| 20260503011003 | 14 | 286 | 12.9 | 20.9 | 0.00 | 0.00 | 0.00 | 72 | 1011.6 |
| 20260503010525 | 15 | 284 | 11.3 | 20.9 | 0.00 | 0.00 | 0.00 | 72 | 1011.5 |
| 20260503010003 | 15 | 275 | 12.9 | 20.9 | 0.00 | 0.00 | 0.00 | 72 | 1011.6 |
| 20260503005524 | 15 | 273 | 14.5 | 25.7 | 0.00 | 0.00 | 0.00 | 72 | 1011.4 |
| 20260503005003 | 15 | 290 | 12.9 | 25.7 | 0.00 | 0.00 | 0.00 | 72 | 1011.6 |
| 20260503004503 | 15 | 301 | 11.3 | 22.5 | 0.00 | 0.00 | 0.00 | 72 | 1011.6 |
| 20260503004003 | 15 | 296 | 12.9 | 24.1 | 0.00 | 0.00 | 0.00 | 72 | 1011.6 |
| 20260503003503 | 15 | 291 | 12.9 | 24.1 | 0.00 | 0.00 | 0.00 | 71 | 1011.6 |
| 20260503003024 | 15 | 294 | 12.9 | 25.7 | 0.00 | 0.00 | 0.00 | 71 | 1011.7 |
| 20260503002503 | 15 | 303 | 12.9 | 25.7 | 0.00 | 0.00 | 0.00 | 70 | 1011.6 |
| 20260503002003 | 15 | 301 | 11.3 | 20.9 | 0.00 | 0.00 | 0.00 | 70 | 1011.6 |
| 20260503001503 | 15 | 288 | 11.3 | 22.5 | 0.00 | 0.00 | 0.00 | 70 | 1011.7 |
| 20260503001003 | 15 | 271 | 12.9 | 22.5 | 0.00 | 0.00 | 0.00 | 71 | 1011.7 |
| 20260503000524 | 15 | 264 | 16.1 | 25.7 | 0.00 | 0.00 | 0.00 | 70 | 1011.6 |
| 20260503000003 | 15 | 272 | 16.1 | 25.7 | 0.00 | 0.00 | 0.00 | 70 | 1011.7 |
| 20260502235503 | 15 | 269 | 16.1 | 27.4 | 0.00 | 0.00 | 0.00 | 69 | 1011.7 |
| 20260502235003 | 16 | 262 | 16.1 | 27.4 | 0.00 | 0.00 | 0.00 | 68 | 1011.7 |
| 20260502234503 | 16 | 263 | 14.5 | 27.4 | 0.00 | 0.00 | 0.00 | 69 | 1011.7 |
| 20260502234003 | 16 | 258 | 14.5 | 27.4 | 0.00 | 0.00 | 0.00 | 68 | 1011.7 |
| 20260502233503 | 16 | 258 | 16.1 | 33.8 | 0.00 | 0.00 | 0.00 | 69 | 1011.8 |
| 20260502233003 | 15 | 277 | 14.5 | 33.8 | 0.00 | 0.00 | 0.00 | 70 | 1011.8 |
| 20260502232503 | 16 | 298 | 12.9 | 22.5 | 0.00 | 0.00 | 0.00 | 70 | 1011.9 |
| 20260502232003 | 16 | 288 | 12.9 | 24.1 | 0.00 | 0.00 | 0.00 | 70 | 1011.9 |
| 20260502231524 | 16 | 285 | 12.9 | 25.7 | 0.00 | 0.00 | 0.00 | 70 | 1012.0 |
| 20260502231024 | 16 | 280 | 14.5 | 25.7 | 0.00 | 0.00 | 0.00 | 70 | 1012.0 |
| 20260502230503 | 16 | 269 | 14.5 | 25.7 | 0.00 | 0.00 | 0.00 | 69 | 1012.1 |
| 20260502230003 | 16 | 262 | 14.5 | 25.7 | 0.00 | 0.00 | 0.00 | 68 | 1012.1 |
| 20260502225503 | 16 | 254 | 14.5 | 25.7 | 0.00 | 0.00 | 0.00 | 67 | 1012.3 |
| 20260502225003 | 16 | 260 | 12.9 | 24.1 | 0.00 | 0.00 | 0.00 | 68 | 1012.3 |
| 20260502224503 | 16 | 266 | 12.9 | 24.1 | 0.00 | 0.00 | 0.00 | 68 | 1012.4 |
| 20260502224003 | 16 | 265 | 14.5 | 24.1 | 0.00 | 0.00 | 0.00 | 68 | 1012.5 |
| 20260502223524 | 16 | 261 | 14.5 | 27.4 | 0.00 | 0.00 | 0.00 | 68 | 1012.5 |
| 20260502223003 | 16 | 257 | 14.5 | 27.4 | 0.00 | 0.00 | 0.00 | 68 | 1012.5 |
| 20260502222503 | 16 | 261 | 14.5 | 25.7 | 0.00 | 0.00 | 0.00 | 70 | 1012.6 |
| 20260502222003 | 16 | 269 | 14.5 | 27.4 | 0.00 | 0.00 | 0.00 | 71 | 1012.7 |
| 20260502221503 | 15 | 273 | 14.5 | 29.0 | 0.00 | 0.00 | 0.00 | 72 | 1012.8 |
| 20260502221003 | 15 | 271 | 14.5 | 29.0 | 0.00 | 0.00 | 0.00 | 72 | 1012.9 |
| 20260502220503 | 16 | 267 | 14.5 | 29.0 | 0.00 | 0.00 | 0.00 | 71 | 1012.9 |
| 20260502220003 | 16 | 263 | 14.5 | 29.0 | 0.00 | 0.00 | 0.00 | 71 | 1012.9 |
| 20260502215503 | 16 | 261 | 14.5 | 27.4 | 0.00 | 0.00 | 0.00 | 71 | 1013.0 |
| 20260502215003 | 16 | 264 | 16.1 | 27.4 | 0.00 | 0.00 | 0.00 | 70 | 1012.9 |
| 20260502214503 | 16 | 263 | 14.5 | 25.7 | 0.00 | 0.00 | 0.00 | 69 | 1013.0 |
| 20260502214003 | 16 | 256 | 12.9 | 24.1 | 0.00 | 0.00 | 0.00 | 70 | 1013.1 |
| 20260502213503 | 16 | 259 | 14.5 | 27.4 | 0.00 | 0.00 | 0.00 | 71 | 1013.1 |
| 20260502213024 | 16 | 263 | 16.1 | 27.4 | 0.00 | 0.00 | 0.00 | 70 | 1013.2 |
| 20260502212503 | 15 | 263 | 16.1 | 25.7 | 0.00 | 0.00 | 0.00 | 71 | 1013.1 |
| 20260502212004 | 15 | 260 | 14.5 | 22.5 | 0.00 | 0.00 | 0.00 | 72 | 1013.2 |
| 20260502211503 | 15 | 263 | 12.9 | 22.5 | 0.00 | 0.00 | 0.00 | 71 | 1013.2 |